Terminal Aerodrome Forecast
Issued by NWS Quad Cities IA IL

Home | Current Version | Previous Version | Text Only | Print | Product List | Glossary On
Versions: 1 2 3 4 5 6 7 8 9 10 11 12 13 14 15 16 17 18
000
FTUS43 KDVN 260500
TAFMLI
TAF
KMLI 260520Z 2606/2706 02010KT 2SM -SN BKN025 OVC035
     FM260700 02011KT 4SM -SN OVC035
     FM260900 36011KT P6SM OVC040
     FM262200 32009KT P6SM SCT050=

USA.gov is the U.S. government's official web portal to all federal, state and local government web resources and services.